sensor_id;sensor_type;location;lat;lon;timestamp;P1;durP1;ratioP1;P2;durP2;ratioP2
12459;SDS011;6295;49.452;8.466;2022-11-04T06:14:56;3.50;;;1.77;;
12459;SDS011;6295;49.452;8.466;2022-11-04T06:18:58;2.63;;;1.30;;
12459;SDS011;6295;49.452;8.466;2022-11-04T06:23:00;3.13;;;1.47;;
12459;SDS011;6295;49.452;8.466;2022-11-04T06:27:02;2.03;;;1.50;;
12459;SDS011;6295;49.452;8.466;2022-11-04T06:31:07;2.47;;;1.40;;
12459;SDS011;6295;49.452;8.466;2022-11-04T06:35:10;4.40;;;1.60;;
12459;SDS011;6295;49.452;8.466;2022-11-04T06:39:12;2.33;;;1.40;;
12459;SDS011;6295;49.452;8.466;2022-11-04T06:43:14;3.17;;;1.50;;
12459;SDS011;6295;49.452;8.466;2022-11-04T06:47:19;4.47;;;1.60;;
12459;SDS011;6295;49.452;8.466;2022-11-04T06:51:22;3.00;;;1.40;;
12459;SDS011;6295;49.452;8.466;2022-11-04T06:55:25;4.53;;;1.53;;
12459;SDS011;6295;49.452;8.466;2022-11-04T06:59:27;2.97;;;1.50;;
12459;SDS011;6295;49.452;8.466;2022-11-04T07:03:32;4.90;;;1.57;;
12459;SDS011;6295;49.452;8.466;2022-11-04T07:07:35;2.47;;;1.50;;
12459;SDS011;6295;49.452;8.466;2022-11-04T07:11:39;3.57;;;1.57;;
12459;SDS011;6295;49.452;8.466;2022-11-04T07:15:44;2.90;;;1.60;;
12459;SDS011;6295;49.452;8.466;2022-11-04T07:19:49;1.80;;;1.50;;
12459;SDS011;6295;49.452;8.466;2022-11-04T07:23:51;3.10;;;1.70;;
12459;SDS011;6295;49.452;8.466;2022-11-04T07:27:53;3.37;;;1.60;;
12459;SDS011;6295;49.452;8.466;2022-11-04T07:31:56;3.40;;;1.43;;
12459;SDS011;6295;49.452;8.466;2022-11-04T07:36:02;2.70;;;1.43;;
12459;SDS011;6295;49.452;8.466;2022-11-04T07:40:07;3.13;;;1.30;;
12459;SDS011;6295;49.452;8.466;2022-11-04T07:44:11;1.60;;;1.50;;
12459;SDS011;6295;49.452;8.466;2022-11-04T07:48:13;2.37;;;1.43;;
12459;SDS011;6295;49.452;8.466;2022-11-04T07:52:19;1.50;;;1.30;;
12459;SDS011;6295;49.452;8.466;2022-11-04T07:56:23;2.63;;;1.30;;
12459;SDS011;6295;49.452;8.466;2022-11-04T08:00:26;3.33;;;1.60;;
12459;SDS011;6295;49.452;8.466;2022-11-04T08:04:28;3.10;;;1.50;;
12459;SDS011;6295;49.452;8.466;2022-11-04T08:08:33;1.90;;;1.37;;
12459;SDS011;6295;49.452;8.466;2022-11-04T08:12:35;3.50;;;1.57;;
12459;SDS011;6295;49.452;8.466;2022-11-04T08:16:39;2.73;;;1.30;;
12459;SDS011;6295;49.452;8.466;2022-11-04T08:20:45;2.03;;;1.43;;
12459;SDS011;6295;49.452;8.466;2022-11-04T08:24:50;4.10;;;1.70;;
12459;SDS011;6295;49.452;8.466;2022-11-04T08:28:52;2.57;;;1.50;;
12459;SDS011;6295;49.452;8.466;2022-11-04T08:32:54;2.30;;;1.47;;
12459;SDS011;6295;49.452;8.466;2022-11-04T08:36:57;2.47;;;1.70;;
12459;SDS011;6295;49.452;8.466;2022-11-04T08:41:01;2.70;;;1.50;;
12459;SDS011;6295;49.452;8.466;2022-11-04T08:45:05;2.10;;;1.40;;
12459;SDS011;6295;49.452;8.466;2022-11-04T08:49:08;1.60;;;1.40;;
12459;SDS011;6295;49.452;8.466;2022-11-04T08:53:11;2.33;;;1.57;;
12459;SDS011;6295;49.452;8.466;2022-11-04T08:57:15;1.87;;;1.43;;
12459;SDS011;6295;49.452;8.466;2022-11-04T09:01:17;3.23;;;1.60;;
12459;SDS011;6295;49.452;8.466;2022-11-04T09:05:20;2.23;;;1.57;;
12459;SDS011;6295;49.452;8.466;2022-11-04T09:09:22;3.67;;;1.43;;
12459;SDS011;6295;49.452;8.466;2022-11-04T09:13:26;3.57;;;1.70;;
12459;SDS011;6295;49.452;8.466;2022-11-04T09:17:29;2.47;;;1.73;;
12459;SDS011;6295;49.452;8.466;2022-11-04T09:21:31;2.27;;;1.30;;
12459;SDS011;6295;49.452;8.466;2022-11-04T09:25:33;1.80;;;1.40;;
12459;SDS011;6295;49.452;8.466;2022-11-04T09:29:38;2.73;;;1.40;;
12459;SDS011;6295;49.452;8.466;2022-11-04T09:33:40;1.93;;;1.60;;
12459;SDS011;6295;49.452;8.466;2022-11-04T09:37:44;2.47;;;1.50;;
12459;SDS011;6295;49.452;8.466;2022-11-04T09:41:53;3.00;;;1.80;;
12459;SDS011;6295;49.452;8.466;2022-11-04T09:46:13;2.50;;;1.27;;
12459;SDS011;6295;49.452;8.466;2022-11-04T09:50:17;2.90;;;1.40;;
12459;SDS011;6295;49.452;8.466;2022-11-04T09:54:25;1.83;;;1.63;;
12459;SDS011;6295;49.452;8.466;2022-11-04T09:58:35;2.77;;;1.70;;
12459;SDS011;6295;49.452;8.466;2022-11-04T10:02:43;1.57;;;1.47;;
12459;SDS011;6295;49.452;8.466;2022-11-04T10:06:56;4.40;;;1.47;;
12459;SDS011;6295;49.452;8.466;2022-11-04T10:11:09;2.40;;;1.60;;
12459;SDS011;6295;49.452;8.466;2022-11-04T10:19:45;2.17;;;1.57;;
12459;SDS011;6295;49.452;8.466;2022-11-04T10:24:06;2.20;;;1.53;;
12459;SDS011;6295;49.452;8.466;2022-11-04T10:28:17;5.30;;;1.50;;
12459;SDS011;6295;49.452;8.466;2022-11-04T10:32:21;2.63;;;1.30;;
12459;SDS011;6295;49.452;8.466;2022-11-04T10:36:27;2.10;;;1.40;;
12459;SDS011;6295;49.452;8.466;2022-11-04T10:40:35;3.67;;;1.50;;
12459;SDS011;6295;49.452;8.466;2022-11-04T10:44:41;2.37;;;1.67;;
12459;SDS011;6295;49.452;8.466;2022-11-04T10:48:47;2.47;;;1.50;;
12459;SDS011;6295;49.452;8.466;2022-11-04T10:53:01;1.63;;;1.50;;
12459;SDS011;6295;49.452;8.466;2022-11-04T10:57:12;2.50;;;1.47;;
12459;SDS011;6295;49.452;8.466;2022-11-04T11:01:24;2.47;;;1.23;;
12459;SDS011;6295;49.452;8.466;2022-11-04T11:05:29;2.83;;;1.60;;
12459;SDS011;6295;49.452;8.466;2022-11-04T11:09:34;2.37;;;1.60;;
12459;SDS011;6295;49.452;8.466;2022-11-04T11:13:44;1.60;;;1.50;;
12459;SDS011;6295;49.452;8.466;2022-11-04T11:17:48;2.30;;;1.40;;
12459;SDS011;6295;49.452;8.466;2022-11-04T11:21:55;2.70;;;1.40;;
12459;SDS011;6295;49.452;8.466;2022-11-04T11:25:59;3.70;;;1.33;;
12459;SDS011;6295;49.452;8.466;2022-11-04T11:30:02;2.57;;;1.40;;
12459;SDS011;6295;49.452;8.466;2022-11-04T11:34:05;2.00;;;1.37;;
12459;SDS011;6295;49.452;8.466;2022-11-04T11:38:17;1.90;;;1.33;;
12459;SDS011;6295;49.452;8.466;2022-11-04T11:42:25;1.80;;;1.37;;
12459;SDS011;6295;49.452;8.466;2022-11-04T11:46:28;3.30;;;1.50;;
12459;SDS011;6295;49.452;8.466;2022-11-04T11:50:33;2.70;;;1.30;;
12459;SDS011;6295;49.452;8.466;2022-11-04T11:54:36;2.17;;;1.30;;
12459;SDS011;6295;49.452;8.466;2022-11-04T11:58:45;1.80;;;1.40;;
12459;SDS011;6295;49.452;8.466;2022-11-04T12:02:52;1.80;;;1.30;;
12459;SDS011;6295;49.452;8.466;2022-11-04T12:07:01;2.90;;;1.37;;
12459;SDS011;6295;49.452;8.466;2022-11-04T12:11:12;2.33;;;1.40;;
12459;SDS011;6295;49.452;8.466;2022-11-04T12:15:28;1.53;;;1.27;;
12459;SDS011;6295;49.452;8.466;2022-11-04T12:19:55;2.27;;;1.20;;
12459;SDS011;6295;49.452;8.466;2022-11-04T12:24:21;2.93;;;1.20;;
12459;SDS011;6295;49.452;8.466;2022-11-04T12:28:33;3.10;;;1.47;;
12459;SDS011;6295;49.452;8.466;2022-11-04T12:32:53;3.17;;;1.37;;
12459;SDS011;6295;49.452;8.466;2022-11-04T12:37:10;1.20;;;1.10;;
12459;SDS011;6295;49.452;8.466;2022-11-04T12:41:22;3.30;;;1.53;;
12459;SDS011;6295;49.452;8.466;2022-11-04T12:45:30;3.80;;;1.50;;
12459;SDS011;6295;49.452;8.466;2022-11-04T12:49:47;3.60;;;1.30;;
12459;SDS011;6295;49.452;8.466;2022-11-04T12:54:06;2.77;;;1.10;;
12459;SDS011;6295;49.452;8.466;2022-11-04T12:58:15;4.37;;;1.20;;
12459;SDS011;6295;49.452;8.466;2022-11-04T13:02:29;2.63;;;1.20;;
12459;SDS011;6295;49.452;8.466;2022-11-04T13:06:37;2.60;;;1.40;;
12459;SDS011;6295;49.452;8.466;2022-11-04T13:10:45;1.73;;;1.10;;
12459;SDS011;6295;49.452;8.466;2022-11-04T13:14:53;2.37;;;1.10;;
12459;SDS011;6295;49.452;8.466;2022-11-04T13:18:59;1.83;;;1.13;;
12459;SDS011;6295;49.452;8.466;2022-11-04T13:23:04;1.77;;;1.00;;
12459;SDS011;6295;49.452;8.466;2022-11-04T13:27:14;2.47;;;1.30;;
12459;SDS011;6295;49.452;8.466;2022-11-04T13:31:21;2.37;;;1.13;;
12459;SDS011;6295;49.452;8.466;2022-11-04T13:35:30;2.33;;;1.20;;
12459;SDS011;6295;49.452;8.466;2022-11-04T13:39:40;1.70;;;1.00;;
12459;SDS011;6295;49.452;8.466;2022-11-04T13:43:46;1.83;;;1.10;;
12459;SDS011;6295;49.452;8.466;2022-11-04T13:47:52;1.70;;;0.90;;
12459;SDS011;6295;49.452;8.466;2022-11-04T13:52:00;2.00;;;1.20;;
12459;SDS011;6295;49.452;8.466;2022-11-04T13:56:08;1.93;;;1.20;;
12459;SDS011;6295;49.452;8.466;2022-11-04T14:00:25;4.10;;;1.23;;
12459;SDS011;6295;49.452;8.466;2022-11-04T14:04:29;2.23;;;1.03;;
12459;SDS011;6295;49.452;8.466;2022-11-04T14:08:32;2.20;;;1.00;;
12459;SDS011;6295;49.452;8.466;2022-11-04T14:12:36;2.93;;;1.00;;
12459;SDS011;6295;49.452;8.466;2022-11-04T14:16:39;1.53;;;1.00;;
12459;SDS011;6295;49.452;8.466;2022-11-04T14:20:59;2.03;;;1.07;;
12459;SDS011;6295;49.452;8.466;2022-11-04T14:25:03;2.37;;;1.13;;
12459;SDS011;6295;49.452;8.466;2022-11-04T14:29:21;1.63;;;1.10;;
12459;SDS011;6295;49.452;8.466;2022-11-04T14:33:32;2.63;;;1.30;;
12459;SDS011;6295;49.452;8.466;2022-11-04T14:37:50;1.33;;;1.00;;
12459;SDS011;6295;49.452;8.466;2022-11-04T14:41:54;2.70;;;1.37;;
12459;SDS011;6295;49.452;8.466;2022-11-04T14:46:00;1.77;;;1.30;;
12459;SDS011;6295;49.452;8.466;2022-11-04T14:50:04;2.73;;;1.20;;
12459;SDS011;6295;49.452;8.466;2022-11-04T14:54:11;3.43;;;1.30;;
12459;SDS011;6295;49.452;8.466;2022-11-04T14:58:21;2.50;;;1.40;;
12459;SDS011;6295;49.452;8.466;2022-11-04T15:02:29;3.67;;;1.50;;
12459;SDS011;6295;49.452;8.466;2022-11-04T15:06:35;3.80;;;1.40;;
12459;SDS011;6295;49.452;8.466;2022-11-04T15:10:39;2.87;;;1.40;;
12459;SDS011;6295;49.452;8.466;2022-11-04T15:14:42;3.40;;;1.50;;
12459;SDS011;6295;49.452;8.466;2022-11-04T15:18:46;4.97;;;1.70;;
12459;SDS011;6295;49.452;8.466;2022-11-04T15:22:49;3.57;;;1.90;;
12459;SDS011;6295;49.452;8.466;2022-11-04T15:26:53;5.70;;;2.20;;
12459;SDS011;6295;49.452;8.466;2022-11-04T15:30:59;5.20;;;2.37;;
12459;SDS011;6295;49.452;8.466;2022-11-04T15:35:03;4.83;;;2.40;;
12459;SDS011;6295;49.452;8.466;2022-11-04T15:39:07;6.03;;;2.60;;
12459;SDS011;6295;49.452;8.466;2022-11-04T15:43:14;4.40;;;2.10;;
12459;SDS011;6295;49.452;8.466;2022-11-04T15:47:20;5.17;;;2.00;;
12459;SDS011;6295;49.452;8.466;2022-11-04T15:51:25;5.07;;;2.07;;
12459;SDS011;6295;49.452;8.466;2022-11-04T15:55:28;4.70;;;2.30;;
12459;SDS011;6295;49.452;8.466;2022-11-04T15:59:33;3.70;;;2.00;;
12459;SDS011;6295;49.452;8.466;2022-11-04T16:03:37;4.77;;;2.30;;
12459;SDS011;6295;49.452;8.466;2022-11-04T16:07:41;3.60;;;2.00;;
12459;SDS011;6295;49.452;8.466;2022-11-04T16:16:20;3.97;;;1.93;;
12459;SDS011;6295;49.452;8.466;2022-11-04T16:20:25;4.20;;;2.10;;
12459;SDS011;6295;49.452;8.466;2022-11-04T16:24:33;4.20;;;2.73;;
12459;SDS011;6295;49.452;8.466;2022-11-04T16:28:38;4.93;;;3.10;;
12459;SDS011;6295;49.452;8.466;2022-11-04T16:32:43;4.73;;;2.50;;
12459;SDS011;6295;49.452;8.466;2022-11-04T16:36:48;4.37;;;2.63;;
12459;SDS011;6295;49.452;8.466;2022-11-04T16:40:52;4.03;;;2.60;;
12459;SDS011;6295;49.452;8.466;2022-11-04T16:44:57;3.90;;;2.67;;
12459;SDS011;6295;49.452;8.466;2022-11-04T16:49:04;3.40;;;2.50;;
12459;SDS011;6295;49.452;8.466;2022-11-04T16:53:08;4.80;;;2.57;;
